Time;durP1;ratioP1;P1;durP2;ratioP2;P2;SDS_P1;SDS_P2;PMS_P1;PMS_P2;Temp;Humidity;BMP_temperature;BMP_pressure;BME280_temperature;BME280_humidity;BME280_pressure;Samples;Min_cycle;Max_cycle;Signal;HPM_P1;HPM_P2
2023/08/24 00:01:05;;;;;;;;;;;19.80;76.00;;;;;;4987704;28;19925;-67
2023/08/24 00:03:32;;;;;;;;;;;19.80;76.10;;;;;;4988548;28;19957;-66
2023/08/24 00:05:59;;;;;;;;;;;19.80;76.00;;;;;;4988858;28;20364;-66
2023/08/24 00:08:26;;;;;;;;;;;19.80;75.90;;;;;;4988762;28;19925;-66
2023/08/24 00:10:54;;;;;;;;;;;19.80;75.80;;;;;;4987653;28;19926;-66
2023/08/24 00:13:21;;;;;;;;;;;19.80;75.90;;;;;;4988770;28;19930;-67
2023/08/24 00:15:49;;;;;;;;;;;19.70;76.10;;;;;;4987366;28;20015;-66
2023/08/24 00:18:18;;;;;;;;;;;19.70;76.00;;;;;;4988447;28;19929;-65
2023/08/24 00:20:45;;;;;;;;;;;19.60;76.20;;;;;;4988591;28;19973;-66
2023/08/24 00:23:12;;;;;;;;;;;19.70;76.20;;;;;;4989194;28;19941;-66
2023/08/24 00:25:40;;;;;;;;;;;19.60;76.10;;;;;;4988316;28;19932;-66
2023/08/24 00:28:07;;;;;;;;;;;19.60;76.20;;;;;;4987943;28;19934;-68
2023/08/24 00:30:35;;;;;;;;;;;19.60;76.10;;;;;;4987905;28;19930;-66
2023/08/24 00:33:04;;;;;;;;;;;19.60;76.00;;;;;;4988435;28;19930;-66
2023/08/24 00:35:31;;;;;;;;;;;19.60;76.20;;;;;;4988687;28;20011;-66
2023/08/24 00:37:58;;;;;;;;;;;19.50;76.50;;;;;;4988811;28;19925;-67
2023/08/24 00:40:25;;;;;;;;;;;19.50;76.50;;;;;;4988261;28;19948;-69
2023/08/24 00:42:52;;;;;;;;;;;19.50;76.50;;;;;;4984638;28;20433;-69
2023/08/24 00:45:19;;;;;;;;;;;19.50;76.50;;;;;;4988106;28;19929;-71
2023/08/24 00:47:48;;;;;;;;;;;19.40;76.70;;;;;;4987679;28;19983;-69
2023/08/24 00:50:17;;;;;;;;;;;19.40;76.90;;;;;;4989390;28;19932;-69
2023/08/24 00:52:44;;;;;;;;;;;19.30;77.20;;;;;;4985340;28;19940;-69
2023/08/24 00:55:11;;;;;;;;;;;19.20;77.30;;;;;;4987983;28;19929;-70
2023/08/24 00:57:38;;;;;;;;;;;19.20;77.30;;;;;;4987485;28;20012;-69
2023/08/24 01:00:08;;;;;;;;;;;19.20;77.40;;;;;;4988360;28;20420;-69
2023/08/24 01:02:35;;;;;;;;;;;19.10;77.60;;;;;;4991472;28;19933;-69
2023/08/24 01:05:04;;;;;;;;;;;19.10;77.70;;;;;;4992059;28;19965;-69
2023/08/24 01:07:33;;;;;;;;;;;19.20;77.40;;;;;;5005026;28;19988;-71
2023/08/24 01:10:00;;;;;;;;;;;19.10;77.50;;;;;;5005831;28;19926;-70
2023/08/24 01:12:32;;;;;;;;;;;19.10;77.40;;;;;;4991728;28;19980;-69
2023/08/24 01:15:03;;;;;;;;;;;19.10;77.40;;;;;;4991778;28;19929;-69
2023/08/24 01:17:31;;;;;;;;;;;19.20;77.10;;;;;;4992591;28;19932;-69
2023/08/24 01:19:58;;;;;;;;;;;19.20;77.10;;;;;;4991167;28;19925;-70
2023/08/24 01:22:33;;;;;;;;;;;19.10;77.10;;;;;;4990369;28;19949;-69
2023/08/24 01:25:08;;;;;;;;;;;19.10;77.40;;;;;;4988875;28;19925;-71
2023/08/24 01:27:37;;;;;;;;;;;19.00;77.50;;;;;;4991150;28;19934;-69
2023/08/24 01:30:05;;;;;;;;;;;19.00;77.60;;;;;;4989567;28;20049;-71
2023/08/24 01:32:32;;;;;;;;;;;19.10;77.50;;;;;;4991561;28;20044;-69
2023/08/24 01:34:59;;;;;;;;;;;19.00;77.50;;;;;;4991911;28;19934;-70
2023/08/24 01:37:27;;;;;;;;;;;19.00;77.50;;;;;;4991644;28;19965;-69
2023/08/24 01:39:57;;;;;;;;;;;18.90;77.70;;;;;;4990155;28;19926;-72
2023/08/24 01:42:27;;;;;;;;;;;18.90;77.90;;;;;;4990367;28;19929;-70
2023/08/24 01:44:58;;;;;;;;;;;18.80;78.00;;;;;;4991771;28;19925;-69
2023/08/24 01:47:28;;;;;;;;;;;18.80;78.10;;;;;;4992621;28;19936;-69
2023/08/24 01:49:58;;;;;;;;;;;18.80;78.10;;;;;;4971806;28;19932;-70
2023/08/24 01:52:26;;;;;;;;;;;18.80;78.10;;;;;;4971471;28;19941;-70
2023/08/24 01:54:53;;;;;;;;;;;18.70;78.30;;;;;;4969268;28;20029;-70
2023/08/24 01:57:20;;;;;;;;;;;18.70;78.30;;;;;;4987180;28;19973;-70
2023/08/24 01:59:47;;;;;;;;;;;18.70;78.40;;;;;;4988052;28;20444;-71
2023/08/24 02:02:16;;;;;;;;;;;18.70;78.50;;;;;;5006655;28;20279;-68
2023/08/24 02:04:43;;;;;;;;;;;18.60;78.50;;;;;;4989071;28;19972;-69
2023/08/24 02:07:10;;;;;;;;;;;18.60;78.50;;;;;;4990674;28;19930;-69
2023/08/24 02:09:37;;;;;;;;;;;18.60;78.70;;;;;;4990526;28;19934;-69
2023/08/24 02:12:05;;;;;;;;;;;18.60;78.70;;;;;;4990557;28;19940;-69
2023/08/24 02:14:33;;;;;;;;;;;18.60;78.60;;;;;;4990902;28;19933;-69
2023/08/24 02:17:00;;;;;;;;;;;18.60;78.70;;;;;;4991027;28;19953;-70
2023/08/24 02:19:28;;;;;;;;;;;18.60;78.70;;;;;;4989986;28;20012;-69
2023/08/24 02:21:56;;;;;;;;;;;18.50;78.70;;;;;;5005193;28;20416;-70
2023/08/24 02:24:23;;;;;;;;;;;18.50;78.90;;;;;;4990075;28;19938;-69
2023/08/24 02:26:50;;;;;;;;;;;18.50;79.00;;;;;;4989566;28;19926;-69
2023/08/24 02:29:17;;;;;;;;;;;18.40;79.10;;;;;;4991088;28;19926;-69
2023/08/24 02:31:44;;;;;;;;;;;18.40;79.10;;;;;;4989075;28;19929;-70
2023/08/24 02:34:10;;;;;;;;;;;18.40;78.80;;;;;;5004697;28;20381;-69
2023/08/24 02:36:39;;;;;;;;;;;18.50;78.60;;;;;;4986761;28;19960;-69
2023/08/24 02:39:06;;;;;;;;;;;18.50;78.60;;;;;;4989505;28;19992;-70
2023/08/24 02:41:35;;;;;;;;;;;18.50;78.70;;;;;;4989760;28;19926;-71
2023/08/24 02:44:02;;;;;;;;;;;18.50;78.80;;;;;;4990446;28;20388;-70
2023/08/24 02:46:29;;;;;;;;;;;18.40;78.80;;;;;;4989413;28;19933;-69
2023/08/24 02:48:56;;;;;;;;;;;18.30;78.90;;;;;;4989348;28;19930;-69
2023/08/24 02:51:23;;;;;;;;;;;18.30;78.90;;;;;;4990326;28;20009;-71
2023/08/24 02:53:52;;;;;;;;;;;18.30;78.80;;;;;;4988714;28;19934;-70
2023/08/24 02:56:21;;;;;;;;;;;18.40;78.70;;;;;;4989980;28;19980;-71
2023/08/24 02:58:48;;;;;;;;;;;18.40;78.40;;;;;;4986903;28;20445;-70
2023/08/24 03:01:15;;;;;;;;;;;18.40;78.40;;;;;;4989502;28;20374;-73
2023/08/24 03:03:42;;;;;;;;;;;18.40;78.30;;;;;;4988804;28;20381;-75
2023/08/24 03:06:09;;;;;;;;;;;18.30;78.50;;;;;;4990223;28;19968;-74
2023/08/24 03:08:37;;;;;;;;;;;18.30;78.80;;;;;;4990225;28;19932;-73
2023/08/24 03:11:05;;;;;;;;;;;18.30;79.00;;;;;;4988864;28;19925;-74
2023/08/24 03:13:32;;;;;;;;;;;18.30;78.90;;;;;;5003743;28;19932;-73
2023/08/24 03:16:03;;;;;;;;;;;18.30;78.70;;;;;;5003745;28;19933;-73
2023/08/24 03:18:30;;;;;;;;;;;18.30;78.70;;;;;;4989790;28;20016;-71
2023/08/24 03:20:57;;;;;;;;;;;18.20;78.90;;;;;;4988689;28;19940;-73
2023/08/24 03:23:25;;;;;;;;;;;18.20;78.90;;;;;;4989907;28;19926;-73
2023/08/24 03:25:52;;;;;;;;;;;18.30;78.70;;;;;;4989336;28;19940;-75
2023/08/24 03:28:20;;;;;;;;;;;18.30;78.50;;;;;;4988084;28;20016;-74
2023/08/24 03:30:48;;;;;;;;;;;18.30;78.50;;;;;;4987810;28;19941;-72
2023/08/24 03:33:14;;;;;;;;;;;18.20;78.70;;;;;;5002144;28;19937;-73
2023/08/24 03:35:41;;;;;;;;;;;18.20;78.70;;;;;;4971342;28;20292;-73
2023/08/24 03:38:08;;;;;;;;;;;18.20;78.70;;;;;;4969168;28;19989;-72
2023/08/24 03:40:35;;;;;;;;;;;18.20;78.60;;;;;;4968795;28;20296;-74
2023/08/24 03:43:02;;;;;;;;;;;18.20;78.70;;;;;;4956224;28;20022;-75
2023/08/24 03:45:31;;;;;;;;;;;18.20;79.00;;;;;;4978709;28;19932;-73
2023/08/24 03:47:58;;;;;;;;;;;18.10;79.10;;;;;;4989039;28;19926;-73
2023/08/24 03:50:25;;;;;;;;;;;18.10;79.00;;;;;;4988974;28;19930;-74
2023/08/24 03:52:54;;;;;;;;;;;18.20;79.10;;;;;;4987763;28;19932;-75
2023/08/24 03:55:22;;;;;;;;;;;18.20;79.00;;;;;;4988235;28;19929;-73
2023/08/24 03:57:49;;;;;;;;;;;18.10;79.30;;;;;;4987156;28;19957;-73
2023/08/24 04:00:17;;;;;;;;;;;18.00;79.50;;;;;;5004314;28;19969;-75
2023/08/24 04:02:46;;;;;;;;;;;17.90;79.50;;;;;;5004514;28;19969;-73
2023/08/24 04:05:21;;;;;;;;;;;17.90;79.60;;;;;;4987213;28;20373;-73
2023/08/24 04:07:49;;;;;;;;;;;17.90;79.60;;;;;;4988876;28;19930;-74
2023/08/24 04:10:15;;;;;;;;;;;17.90;79.40;;;;;;4988770;28;19937;-79
2023/08/24 04:12:42;;;;;;;;;;;18.00;79.50;;;;;;4989463;28;20041;-79
2023/08/24 04:15:10;;;;;;;;;;;17.90;79.60;;;;;;4987896;28;19936;-78
2023/08/24 04:17:37;;;;;;;;;;;18.00;79.50;;;;;;4990887;28;20377;-80
2023/08/24 04:20:07;;;;;;;;;;;18.00;79.40;;;;;;4989533;28;19927;-79
2023/08/24 04:22:34;;;;;;;;;;;18.10;79.20;;;;;;4989565;28;19925;-79
2023/08/24 04:25:01;;;;;;;;;;;18.10;79.20;;;;;;4988538;28;19953;-78
2023/08/24 04:27:28;;;;;;;;;;;18.10;79.10;;;;;;4990240;28;20013;-78
2023/08/24 04:29:55;;;;;;;;;;;18.00;79.30;;;;;;4971458;28;19973;-78
2023/08/24 04:32:22;;;;;;;;;;;18.00;79.40;;;;;;4970287;28;19937;-78
2023/08/24 04:34:49;;;;;;;;;;;18.10;79.30;;;;;;4980280;28;19926;-79
2023/08/24 04:37:18;;;;;;;;;;;18.10;79.20;;;;;;4993720;28;20018;-79
2023/08/24 04:39:45;;;;;;;;;;;18.10;79.50;;;;;;4991897;28;19933;-78
2023/08/24 04:42:12;;;;;;;;;;;18.00;79.60;;;;;;4993467;28;19973;-78
2023/08/24 04:44:39;;;;;;;;;;;18.10;79.40;;;;;;4994698;28;20015;-78
2023/08/24 04:47:06;;;;;;;;;;;18.10;79.10;;;;;;4993818;28;19932;-79
2023/08/24 04:49:33;;;;;;;;;;;18.10;79.10;;;;;;4992327;28;20021;-79
2023/08/24 04:52:00;;;;;;;;;;;18.10;79.00;;;;;;4993961;28;19926;-78
2023/08/24 04:54:29;;;;;;;;;;;18.10;79.10;;;;;;4993859;28;19929;-78
2023/08/24 04:56:55;;;;;;;;;;;18.10;79.30;;;;;;4994825;28;20020;-79
2023/08/24 04:59:22;;;;;;;;;;;18.10;79.40;;;;;;4993545;28;19970;-79
2023/08/24 05:01:49;;;;;;;;;;;18.10;79.50;;;;;;4993167;28;19932;-79
2023/08/24 05:04:16;;;;;;;;;;;18.10;79.50;;;;;;4994301;28;20342;-79
2023/08/24 05:06:43;;;;;;;;;;;18.10;79.60;;;;;;4992192;28;20306;-78
2023/08/24 05:09:10;;;;;;;;;;;18.10;79.70;;;;;;4993473;28;19934;-79
2023/08/24 05:11:39;;;;;;;;;;;18.10;79.50;;;;;;4993199;28;19964;-78
2023/08/24 05:14:05;;;;;;;;;;;18.20;79.60;;;;;;4992875;28;19925;-77
2023/08/24 05:16:32;;;;;;;;;;;18.20;79.60;;;;;;4990736;28;19997;-78
2023/08/24 05:18:59;;;;;;;;;;;18.20;79.40;;;;;;4993196;28;19925;-80
2023/08/24 05:21:26;;;;;;;;;;;18.30;79.30;;;;;;4991518;28;19926;-73
2023/08/24 05:23:53;;;;;;;;;;;18.30;79.40;;;;;;4993355;28;20024;-73
2023/08/24 05:26:24;;;;;;;;;;;18.30;79.20;;;;;;4994512;28;19925;-73
2023/08/24 05:28:53;;;;;;;;;;;18.30;79.10;;;;;;4993709;28;19934;-73
2023/08/24 05:31:20;;;;;;;;;;;18.30;79.00;;;;;;4994592;28;19965;-74
2023/08/24 05:33:47;;;;;;;;;;;18.30;79.20;;;;;;4992714;28;19933;-74
2023/08/24 05:36:14;;;;;;;;;;;18.30;79.20;;;;;;4993136;28;19933;-74
2023/08/24 05:38:46;;;;;;;;;;;18.30;79.50;;;;;;4991693;28;20020;-73
2023/08/24 05:41:13;;;;;;;;;;;18.30;79.40;;;;;;4991157;28;20374;-73
2023/08/24 05:43:41;;;;;;;;;;;18.40;79.30;;;;;;4991467;28;19930;-73
2023/08/24 05:46:09;;;;;;;;;;;18.40;79.40;;;;;;4991890;28;20012;-74
2023/08/24 05:48:36;;;;;;;;;;;18.50;79.50;;;;;;4990346;28;19936;-73
2023/08/24 05:51:03;;;;;;;;;;;18.50;79.50;;;;;;4991747;28;19926;-73
2023/08/24 05:53:30;;;;;;;;;;;18.50;79.60;;;;;;4990765;28;19925;-75
2023/08/24 05:56:00;;;;;;;;;;;18.50;79.70;;;;;;4989846;28;19941;-74
2023/08/24 05:58:27;;;;;;;;;;;18.50;80.00;;;;;;4990490;28;20013;-73
2023/08/24 06:00:58;;;;;;;;;;;18.50;80.10;;;;;;4990263;28;20024;-75
2023/08/24 06:03:35;;;;;;;;;;;18.50;80.50;;;;;;4991470;28;20381;-72
2023/08/24 06:06:11;;;;;;;;;;;18.50;80.40;;;;;;4989377;28;20378;-73
2023/08/24 06:08:44;;;;;;;;;;;18.50;80.50;;;;;;4990383;28;19933;-73
2023/08/24 06:11:20;;;;;;;;;;;18.60;80.30;;;;;;4975439;28;20500;-72
2023/08/24 06:13:57;;;;;;;;;;;18.70;80.00;;;;;;4971144;28;19930;-74
2023/08/24 06:16:32;;;;;;;;;;;18.80;79.80;;;;;;4970802;28;19933;-73
2023/08/24 06:21:55;;;;;;;;;;;18.90;79.60;;;;;;4990910;28;19925;-73
2023/08/24 06:24:30;;;;;;;;;;;18.90;79.40;;;;;;4991628;28;19926;-73
2023/08/24 06:27:05;;;;;;;;;;;19.00;79.00;;;;;;4991800;28;19926;-71
2023/08/24 06:29:34;;;;;;;;;;;19.10;78.80;;;;;;4990741;28;19930;-72
2023/08/24 06:32:01;;;;;;;;;;;19.10;78.90;;;;;;4989549;28;19936;-70
2023/08/24 06:34:29;;;;;;;;;;;19.20;78.60;;;;;;4990464;28;19972;-69
2023/08/24 06:37:01;;;;;;;;;;;19.20;78.80;;;;;;4990720;28;19926;-69
2023/08/24 06:39:28;;;;;;;;;;;19.30;78.60;;;;;;4990503;28;19930;-69
2023/08/24 06:41:55;;;;;;;;;;;19.40;78.40;;;;;;4990200;28;20297;-69
2023/08/24 06:44:26;;;;;;;;;;;19.60;78.30;;;;;;4988832;28;19930;-69
2023/08/24 06:46:53;;;;;;;;;;;19.70;77.80;;;;;;4989718;28;19929;-69
2023/08/24 06:49:20;;;;;;;;;;;19.90;77.60;;;;;;4989013;28;20325;-70
2023/08/24 06:51:48;;;;;;;;;;;20.10;77.80;;;;;;5004766;28;19953;-69
2023/08/24 06:54:15;;;;;;;;;;;20.30;77.30;;;;;;4991362;28;19925;-69
2023/08/24 06:56:43;;;;;;;;;;;20.30;77.00;;;;;;4989313;28;19976;-70
2023/08/24 06:59:12;;;;;;;;;;;20.30;76.60;;;;;;4989306;28;19969;-69
2023/08/24 07:01:40;;;;;;;;;;;20.30;76.50;;;;;;4988130;28;19956;-70
2023/08/24 07:04:07;;;;;;;;;;;20.20;76.40;;;;;;4990175;28;19934;-68
2023/08/24 07:06:34;;;;;;;;;;;20.20;76.40;;;;;;4989449;28;20492;-68
2023/08/24 07:09:06;;;;;;;;;;;20.10;76.50;;;;;;4990124;28;19930;-70
2023/08/24 07:11:33;;;;;;;;;;;20.10;76.50;;;;;;4989210;28;19930;-68
2023/08/24 07:14:00;;;;;;;;;;;20.10;76.90;;;;;;4988800;28;20012;-69
2023/08/24 07:16:27;;;;;;;;;;;20.00;77.20;;;;;;4988710;28;20016;-70
2023/08/24 07:18:54;;;;;;;;;;;19.90;77.80;;;;;;4989594;28;19937;-69
2023/08/24 07:21:21;;;;;;;;;;;19.80;77.40;;;;;;4990839;28;19937;-69
2023/08/24 07:23:48;;;;;;;;;;;19.70;77.40;;;;;;4989477;28;20044;-69
2023/08/24 07:26:16;;;;;;;;;;;19.80;78.20;;;;;;4989424;28;20381;-70
2023/08/24 07:28:43;;;;;;;;;;;19.80;78.00;;;;;;4988710;28;19936;-69
2023/08/24 07:31:11;;;;;;;;;;;19.80;78.30;;;;;;4989930;28;19934;-70
2023/08/24 07:33:39;;;;;;;;;;;19.80;78.30;;;;;;4989747;28;19926;-72
2023/08/24 07:36:06;;;;;;;;;;;19.80;79.10;;;;;;4990635;28;19926;-70
2023/08/24 07:38:33;;;;;;;;;;;19.60;79.70;;;;;;4986622;28;19925;-69
2023/08/24 07:41:00;;;;;;;;;;;19.70;80.10;;;;;;4985656;28;20445;-69
2023/08/24 07:43:29;;;;;;;;;;;19.70;79.30;;;;;;4989183;28;19934;-71
2023/08/24 07:45:56;;;;;;;;;;;19.80;80.20;;;;;;4989912;28;19929;-70
2023/08/24 07:48:23;;;;;;;;;;;19.90;79.90;;;;;;4990257;28;20027;-71
2023/08/24 07:50:50;;;;;;;;;;;19.90;80.30;;;;;;4989037;28;19930;-69
2023/08/24 07:53:17;;;;;;;;;;;19.90;80.10;;;;;;4987556;28;20021;-70
2023/08/24 07:55:44;;;;;;;;;;;19.80;80.20;;;;;;4989477;28;19957;-71
2023/08/24 07:58:11;;;;;;;;;;;19.80;80.90;;;;;;4988585;28;19933;-69
2023/08/24 08:00:40;;;;;;;;;;;19.90;80.80;;;;;;4988942;28;19929;-71
2023/08/24 08:03:07;;;;;;;;;;;19.90;80.80;;;;;;4988816;28;20020;-69
2023/08/24 08:05:34;;;;;;;;;;;20.00;80.40;;;;;;4988832;28;19994;-70
2023/08/24 08:08:01;;;;;;;;;;;20.00;80.80;;;;;;4987583;28;19992;-69
2023/08/24 08:10:28;;;;;;;;;;;20.10;80.60;;;;;;4986874;28;20397;-70
2023/08/24 08:12:55;;;;;;;;;;;20.20;80.80;;;;;;4987618;28;19936;-69
2023/08/24 08:15:22;;;;;;;;;;;20.20;80.40;;;;;;4990017;28;19929;-71
2023/08/24 08:17:52;;;;;;;;;;;20.20;80.50;;;;;;4988483;28;19930;-69
2023/08/24 08:20:19;;;;;;;;;;;20.30;80.30;;;;;;4989104;28;19948;-69
2023/08/24 08:22:46;;;;;;;;;;;20.30;80.70;;;;;;4988645;28;19926;-71
2023/08/24 08:25:13;;;;;;;;;;;20.40;80.80;;;;;;4989182;28;20385;-70
2023/08/24 08:27:40;;;;;;;;;;;20.50;80.10;;;;;;4988901;28;19968;-71
2023/08/24 08:30:07;;;;;;;;;;;20.60;80.50;;;;;;4989828;28;19993;-70
2023/08/24 08:32:34;;;;;;;;;;;20.60;80.20;;;;;;4987986;28;19932;-69
2023/08/24 08:35:04;;;;;;;;;;;20.70;80.10;;;;;;4988826;28;19938;-71
2023/08/24 08:37:31;;;;;;;;;;;20.80;80.60;;;;;;4988741;28;19988;-70
2023/08/24 08:39:58;;;;;;;;;;;20.80;80.50;;;;;;4988435;28;19936;-69
2023/08/24 08:42:25;;;;;;;;;;;20.80;80.10;;;;;;4989802;28;19926;-69
2023/08/24 08:44:55;;;;;;;;;;;20.90;80.20;;;;;;4988798;28;19925;-71
2023/08/24 08:47:22;;;;;;;;;;;21.10;80.10;;;;;;4989659;28;19976;-70
2023/08/24 08:49:49;;;;;;;;;;;21.30;79.70;;;;;;4988044;28;19933;-70
2023/08/24 08:52:18;;;;;;;;;;;21.40;79.60;;;;;;4988806;28;19964;-70
2023/08/24 08:54:45;;;;;;;;;;;21.50;79.10;;;;;;4988979;28;19968;-71
2023/08/24 08:57:12;;;;;;;;;;;21.60;79.40;;;;;;4988899;28;20017;-70
2023/08/24 08:59:39;;;;;;;;;;;21.70;78.70;;;;;;4987960;28;20019;-70
2023/08/24 09:02:06;;;;;;;;;;;21.90;78.70;;;;;;4987423;28;19925;-71
2023/08/24 09:04:34;;;;;;;;;;;22.10;78.70;;;;;;4988185;28;20049;-70
2023/08/24 09:07:04;;;;;;;;;;;22.10;78.00;;;;;;4987399;28;20564;-70
2023/08/24 09:09:33;;;;;;;;;;;22.20;77.70;;;;;;4988981;28;19940;-69
2023/08/24 09:12:00;;;;;;;;;;;22.30;77.60;;;;;;4988267;28;19961;-70
2023/08/24 09:14:27;;;;;;;;;;;22.40;77.20;;;;;;4988444;28;20392;-71
2023/08/24 09:16:54;;;;;;;;;;;22.40;77.40;;;;;;4988768;28;20349;-70
2023/08/24 09:19:28;;;;;;;;;;;22.40;77.60;;;;;;4988406;28;19934;-69
2023/08/24 09:21:57;;;;;;;;;;;22.50;77.80;;;;;;4990900;28;19933;-71
2023/08/24 09:24:30;;;;;;;;;;;22.70;76.90;;;;;;4991003;28;19961;-70
2023/08/24 09:26:59;;;;;;;;;;;22.70;77.30;;;;;;4992589;28;19930;-69
2023/08/24 09:29:26;;;;;;;;;;;22.70;77.50;;;;;;4991383;28;19933;-70
2023/08/24 09:31:53;;;;;;;;;;;22.80;77.00;;;;;;4992058;28;19980;-70
2023/08/24 09:34:20;;;;;;;;;;;23.00;76.70;;;;;;4991459;28;20017;-69
2023/08/24 09:36:47;;;;;;;;;;;23.30;76.40;;;;;;4992758;28;19932;-70
2023/08/24 09:39:19;;;;;;;;;;;23.50;75.50;;;;;;4990909;28;19934;-71
2023/08/24 09:41:49;;;;;;;;;;;23.70;75.20;;;;;;4990415;28;25510;-69
2023/08/24 09:44:19;;;;;;;;;;;23.90;74.60;;;;;;4991843;28;19969;-70
2023/08/24 09:46:46;;;;;;;;;;;24.10;74.00;;;;;;4991570;28;19972;-70
2023/08/24 09:49:13;;;;;;;;;;;24.30;73.60;;;;;;4991675;28;19934;-70
2023/08/24 09:51:41;;;;;;;;;;;24.50;73.30;;;;;;4990694;28;19992;-70
2023/08/24 09:54:09;;;;;;;;;;;24.50;73.10;;;;;;4990523;28;19926;-70
2023/08/24 09:56:37;;;;;;;;;;;24.70;72.70;;;;;;4989999;28;19930;-71
2023/08/24 09:59:09;;;;;;;;;;;24.90;71.70;;;;;;4990796;28;19930;-70
2023/08/24 10:01:37;;;;;;;;;;;25.00;71.10;;;;;;4990748;28;19932;-69
2023/08/24 10:04:06;;;;;;;;;;;25.10;70.70;;;;;;4991643;28;19937;-70
2023/08/24 10:06:33;;;;;;;;;;;25.30;69.50;;;;;;4989548;28;19929;-68
2023/08/24 10:09:04;;;;;;;;;;;25.40;69.20;;;;;;4989409;28;19968;-69
2023/08/24 10:11:31;;;;;;;;;;;25.50;68.80;;;;;;4989362;28;20417;-70
2023/08/24 10:14:01;;;;;;;;;;;25.60;68.30;;;;;;4990475;28;19995;-69
2023/08/24 10:16:29;;;;;;;;;;;25.60;68.90;;;;;;4991690;28;19937;-69
2023/08/24 10:18:58;;;;;;;;;;;25.80;68.30;;;;;;4991495;28;19932;-69
2023/08/24 10:21:26;;;;;;;;;;;25.90;68.30;;;;;;4991168;28;19937;-70
2023/08/24 10:23:53;;;;;;;;;;;26.00;67.80;;;;;;4989559;28;19953;-68
2023/08/24 10:26:21;;;;;;;;;;;26.20;67.30;;;;;;4989406;28;19930;-69
2023/08/24 10:28:49;;;;;;;;;;;26.20;66.60;;;;;;4990940;28;19925;-69
2023/08/24 10:31:16;;;;;;;;;;;26.30;66.00;;;;;;4989871;28;20034;-70
2023/08/24 10:33:44;;;;;;;;;;;26.40;64.30;;;;;;4991028;28;19933;-68
2023/08/24 10:36:13;;;;;;;;;;;26.50;63.80;;;;;;4989279;28;20020;-69
2023/08/24 10:38:42;;;;;;;;;;;26.60;63.20;;;;;;4989456;28;19930;-69
2023/08/24 10:41:09;;;;;;;;;;;26.70;62.70;;;;;;4989936;28;19925;-69
2023/08/24 10:43:36;;;;;;;;;;;26.80;62.00;;;;;;4990810;28;20373;-70
2023/08/24 10:46:04;;;;;;;;;;;26.80;61.40;;;;;;4991498;28;20464;-67
2023/08/24 10:48:32;;;;;;;;;;;26.90;60.90;;;;;;4989298;28;20283;-67
2023/08/24 10:51:20;;;;;;;;;;;26.90;61.00;;;;;;4985288;28;19969;-69
2023/08/24 10:53:48;;;;;;;;;;;27.00;59.80;;;;;;4988362;28;19926;-70
2023/08/24 10:56:16;;;;;;;;;;;27.00;59.80;;;;;;4987972;28;20020;-69
2023/08/24 10:58:43;;;;;;;;;;;27.10;60.40;;;;;;4989985;28;20036;-69
2023/08/24 11:01:15;;;;;;;;;;;27.10;59.00;;;;;;4989958;28;19980;-70
2023/08/24 11:03:46;;;;;;;;;;;27.20;58.80;;;;;;4990633;28;19933;-68
2023/08/24 11:06:22;;;;;;;;;;;27.20;58.60;;;;;;4988195;28;19937;-68
2023/08/24 11:08:50;;;;;;;;;;;27.30;58.60;;;;;;4988527;28;19936;-69
2023/08/24 11:11:20;;;;;;;;;;;27.20;58.60;;;;;;4989080;28;19933;-73
2023/08/24 11:14:05;;;;;;;;;;;27.20;58.20;;;;;;4990147;28;19930;-73
2023/08/24 11:16:41;;;;;;;;;;;27.30;58.20;;;;;;4989466;28;19929;-72
2023/08/24 11:19:09;;;;;;;;;;;27.40;58.00;;;;;;4990402;28;19929;-72
2023/08/24 11:21:39;;;;;;;;;;;27.40;58.10;;;;;;4989941;28;19972;-71
2023/08/24 11:24:06;;;;;;;;;;;27.50;58.00;;;;;;4988117;28;19925;-71
2023/08/24 11:26:33;;;;;;;;;;;27.50;57.10;;;;;;4990106;28;20004;-72
2023/08/24 11:29:00;;;;;;;;;;;27.50;57.50;;;;;;4987574;28;19969;-72
2023/08/24 11:31:27;;;;;;;;;;;27.50;57.70;;;;;;4989746;28;20377;-72
2023/08/24 11:33:57;;;;;;;;;;;27.40;57.80;;;;;;4989544;28;19927;-72
2023/08/24 11:36:24;;;;;;;;;;;27.30;57.30;;;;;;4989120;28;19956;-71
2023/08/24 11:38:53;;;;;;;;;;;27.30;57.80;;;;;;4988791;28;20017;-72
2023/08/24 11:41:21;;;;;;;;;;;27.30;58.10;;;;;;4988660;28;19925;-73
2023/08/24 11:43:50;;;;;;;;;;;27.40;57.50;;;;;;4990034;28;19930;-73
2023/08/24 11:46:17;;;;;;;;;;;27.50;56.80;;;;;;4988626;28;19999;-71
2023/08/24 11:48:45;;;;;;;;;;;27.60;57.00;;;;;;4988993;28;19937;-72
2023/08/24 11:51:12;;;;;;;;;;;27.70;57.40;;;;;;4988026;28;20029;-73
2023/08/24 11:53:40;;;;;;;;;;;27.80;57.70;;;;;;4987139;28;19930;-72
2023/08/24 11:56:10;;;;;;;;;;;27.80;57.40;;;;;;4989939;28;19926;-73
2023/08/24 11:58:38;;;;;;;;;;;27.80;57.00;;;;;;4987812;28;20830;-72
2023/08/24 12:01:05;;;;;;;;;;;27.80;56.30;;;;;;4989269;28;20430;-72
2023/08/24 12:03:33;;;;;;;;;;;27.90;56.70;;;;;;4985343;28;20385;-73
2023/08/24 12:06:00;;;;;;;;;;;28.00;57.50;;;;;;4987432;28;20049;-72
2023/08/24 12:08:28;;;;;;;;;;;28.00;56.80;;;;;;4987820;28;20377;-71
2023/08/24 12:10:55;;;;;;;;;;;28.00;56.80;;;;;;4988727;28;19988;-72
2023/08/24 12:13:24;;;;;;;;;;;28.00;56.60;;;;;;4989194;28;20274;-71
2023/08/24 12:15:55;;;;;;;;;;;27.90;57.20;;;;;;4989003;28;19932;-73
2023/08/24 12:18:23;;;;;;;;;;;28.00;57.40;;;;;;4986771;28;19930;-73
2023/08/24 12:20:51;;;;;;;;;;;28.00;57.80;;;;;;4987890;28;20009;-69
2023/08/24 12:23:19;;;;;;;;;;;28.10;58.30;;;;;;4987459;28;20393;-69
2023/08/24 12:25:46;;;;;;;;;;;28.10;58.10;;;;;;4988210;28;19937;-70
2023/08/24 12:28:15;;;;;;;;;;;28.20;58.10;;;;;;4988992;28;19925;-68
2023/08/24 12:30:49;;;;;;;;;;;28.20;58.20;;;;;;4988187;28;19926;-69
2023/08/24 12:33:25;;;;;;;;;;;28.20;57.90;;;;;;4986646;28;20358;-70
2023/08/24 12:35:53;;;;;;;;;;;28.20;58.80;;;;;;4987133;28;20413;-69
2023/08/24 12:38:20;;;;;;;;;;;28.30;58.20;;;;;;4988232;28;20329;-70
2023/08/24 12:40:47;;;;;;;;;;;28.40;58.00;;;;;;4988809;28;19934;-68
2023/08/24 12:43:14;;;;;;;;;;;28.40;57.00;;;;;;4987545;28;19926;-69
2023/08/24 12:45:41;;;;;;;;;;;28.50;57.00;;;;;;4988529;28;19988;-70
2023/08/24 12:48:10;;;;;;;;;;;28.50;57.70;;;;;;4988579;28;20337;-69
2023/08/24 12:50:37;;;;;;;;;;;28.60;57.20;;;;;;5002898;28;19933;-69
2023/08/24 12:53:06;;;;;;;;;;;28.60;57.50;;;;;;4987803;28;19929;-70
2023/08/24 12:55:33;;;;;;;;;;;28.50;57.40;;;;;;4988169;28;19961;-69
2023/08/24 12:58:00;;;;;;;;;;;28.50;57.80;;;;;;4991872;28;19965;-70
2023/08/24 13:00:30;;;;;;;;;;;28.50;57.50;;;;;;4992481;28;19926;-69
2023/08/24 13:02:57;;;;;;;;;;;28.50;57.50;;;;;;4991548;28;20399;-69
2023/08/24 13:05:25;;;;;;;;;;;28.50;57.10;;;;;;4992117;28;19949;-69
2023/08/24 13:07:52;;;;;;;;;;;28.50;57.00;;;;;;4992076;28;19938;-70
2023/08/24 13:10:19;;;;;;;;;;;28.40;57.40;;;;;;4993004;28;20570;-69
2023/08/24 13:12:46;;;;;;;;;;;28.50;57.00;;;;;;4991465;28;19929;-68
2023/08/24 13:15:13;;;;;;;;;;;28.50;56.60;;;;;;4990825;28;19951;-70
2023/08/24 13:17:40;;;;;;;;;;;28.50;57.10;;;;;;4991443;28;19929;-70
2023/08/24 13:20:08;;;;;;;;;;;28.40;57.30;;;;;;4991999;28;20045;-70
2023/08/24 13:22:36;;;;;;;;;;;28.40;57.70;;;;;;4992677;28;20020;-69
2023/08/24 13:25:04;;;;;;;;;;;28.30;57.40;;;;;;4991217;28;20407;-69
2023/08/24 13:27:31;;;;;;;;;;;28.30;57.30;;;;;;4991625;28;19929;-69
2023/08/24 13:30:00;;;;;;;;;;;28.30;57.10;;;;;;4988762;28;19957;-70
2023/08/24 13:32:27;;;;;;;;;;;28.20;55.60;;;;;;4991682;28;20012;-69
2023/08/24 13:34:55;;;;;;;;;;;28.20;55.70;;;;;;4991315;28;19929;-71
2023/08/24 13:37:23;;;;;;;;;;;28.20;56.30;;;;;;4992339;28;19934;-70
2023/08/24 13:39:51;;;;;;;;;;;28.20;56.30;;;;;;4990897;28;20482;-70
2023/08/24 13:42:18;;;;;;;;;;;28.20;56.30;;;;;;4991384;28;19930;-69
2023/08/24 13:44:46;;;;;;;;;;;28.30;57.00;;;;;;4988075;28;20013;-70
2023/08/24 13:47:13;;;;;;;;;;;28.30;57.60;;;;;;4991146;28;20305;-68
2023/08/24 13:49:40;;;;;;;;;;;28.20;57.60;;;;;;4992778;28;19930;-70
2023/08/24 13:52:07;;;;;;;;;;;28.30;58.10;;;;;;4990039;28;19933;-69
2023/08/24 13:54:35;;;;;;;;;;;28.30;58.20;;;;;;4991447;28;19961;-69
2023/08/24 13:57:04;;;;;;;;;;;28.20;58.30;;;;;;4990018;28;20544;-71
2023/08/24 13:59:31;;;;;;;;;;;28.20;58.10;;;;;;4991420;28;19957;-71
2023/08/24 14:01:58;;;;;;;;;;;28.30;58.20;;;;;;4989929;28;19930;-70
2023/08/24 14:04:25;;;;;;;;;;;28.30;57.90;;;;;;4991698;28;19932;-69
2023/08/24 14:06:52;;;;;;;;;;;28.30;58.80;;;;;;4989517;28;19929;-70
2023/08/24 14:09:19;;;;;;;;;;;28.30;58.80;;;;;;4989320;28;19930;-69
2023/08/24 14:11:47;;;;;;;;;;;28.30;59.80;;;;;;4990648;28;19934;-69
2023/08/24 14:14:15;;;;;;;;;;;28.20;60.30;;;;;;4990689;28;19938;-69
2023/08/24 14:16:42;;;;;;;;;;;28.20;60.70;;;;;;4992151;28;19934;-73
2023/08/24 14:19:09;;;;;;;;;;;28.20;61.20;;;;;;4990187;28;20028;-69
2023/08/24 14:21:36;;;;;;;;;;;28.10;61.20;;;;;;4990814;28;20353;-70
2023/08/24 14:24:04;;;;;;;;;;;28.10;61.40;;;;;;4989247;28;19936;-70